Rio Vista, Texas
Current Conditions -  °F | °C
As of 8:15 PM on Sunday 25 Jan 2015 (Local Time) from KCPT Reporting Station
Clear Clear  
Wind Chill: 45°   Ceiling: Unl
Heat Index: 48°   Visibility: 10mi
Dew Point: 25°   Wind: 7mph
Humidity: 40%   Direction: 300°WNW
Pressure: 30.16"   Gusts: NA
Location:  32.23°N, 97.37°W
Report Text: KCPT 260215Z AUTO 30006KT 10SM CLR 09/M04 A3016 RMK AO2
Loading
Personal Weather Stations






























Interactive Weather Map New forecast layout! Learn more

10-Day Weather Forecast

Advertisements
Track Severe Weather on mobile